Goldboro, Canada
Current Conditions -  °F | °C
As of 12:07 PM on Friday 28 Nov 2014 (Local Time) from CYPD Reporting Station
Broken Clouds Broken Clouds  
Wind Chill: 24°   Ceiling: 2300
Heat Index: 30°   Visibility: 9mi
Dew Point: 27°   Wind: 6mph
Humidity: 86%   Direction: 60°ENE
Pressure: 29.87"   Gusts: NA
Location:  45.18°N, 61.65°W
Report Text: CYPD 281607Z AUTO 06005KT 9SM SCT019 BKN023 BKN031 M01/M03 A2987 RMK SLP120
Loading
Personal Weather Stations






























Interactive Weather Map New forecast layout! Learn more

10-Day Weather Forecast

Advertisements
Track Severe Weather on mobile